createdAt,value
2018-02-09T00:00:13.472Z,49.10
2018-02-09T00:01:13.465Z,46.90
2018-02-09T00:02:13.477Z,49.10
2018-02-09T00:03:13.486Z,46.40
2018-02-09T00:04:13.496Z,50.30
2018-02-09T00:05:13.509Z,49.90
2018-02-09T00:06:13.515Z,50.00
2018-02-09T00:07:13.561Z,49.20
2018-02-09T00:08:13.541Z,46.60
2018-02-09T00:09:13.561Z,45.30
2018-02-09T00:10:13.563Z,46.90
2018-02-09T00:11:13.579Z,47.20
2018-02-09T00:12:13.591Z,46.10
2018-02-09T00:13:13.599Z,47.50
2018-02-09T00:14:13.611Z,46.40
2018-02-09T00:15:13.624Z,47.30
2018-02-09T00:16:13.638Z,46.90
2018-02-09T00:17:13.648Z,55.80
2018-02-09T00:18:13.658Z,46.30
2018-02-09T00:19:13.677Z,47.00
2018-02-09T00:20:13.683Z,48.90
2018-02-09T00:21:13.695Z,47.20
2018-02-09T00:22:13.703Z,44.70
2018-02-09T00:23:13.722Z,44.50
2018-02-09T00:24:13.738Z,46.10
2018-02-09T00:25:13.743Z,46.20
2018-02-09T00:26:13.753Z,45.10
2018-02-09T00:27:13.766Z,46.90
2018-02-09T00:28:13.777Z,45.50
2018-02-09T00:29:13.791Z,46.80
2018-02-09T00:30:13.801Z,45.90
2018-02-09T00:31:13.817Z,48.10
2018-02-09T00:32:13.824Z,46.60
2018-02-09T00:33:13.838Z,46.10
2018-02-09T00:34:13.850Z,45.20
2018-02-09T00:35:13.865Z,47.80
2018-02-09T00:36:13.874Z,43.20
2018-02-09T00:37:13.885Z,45.70
2018-02-09T00:38:13.895Z,46.30
2018-02-09T00:39:13.913Z,44.30
2018-02-09T00:40:13.937Z,45.00
2018-02-09T00:41:13.940Z,46.00
2018-02-09T00:42:13.945Z,46.70
2018-02-09T00:43:13.955Z,44.30
2018-02-09T00:44:13.974Z,43.90
2018-02-09T00:45:13.982Z,45.90
2018-02-09T00:46:13.990Z,39.90
2018-02-09T00:47:14.011Z,41.10
2018-02-09T00:48:14.016Z,43.60
2018-02-09T00:49:14.034Z,45.30
2018-02-09T00:50:14.041Z,42.30
2018-02-09T00:51:14.053Z,40.90
2018-02-09T00:52:14.065Z,47.30
2018-02-09T00:53:14.078Z,44.00
2018-02-09T00:54:14.088Z,48.20
2018-02-09T00:55:14.100Z,44.50
2018-02-09T00:56:14.113Z,47.00
2018-02-09T00:57:14.123Z,44.50
2018-02-09T00:58:14.136Z,48.80
2018-02-09T00:59:14.149Z,45.40
2018-02-09T01:00:14.160Z,41.30
2018-02-09T01:01:14.178Z,46.10
2018-02-09T01:02:14.183Z,43.90
2018-02-09T01:03:14.195Z,47.30
2018-02-09T01:04:14.209Z,45.40
2018-02-09T01:05:14.220Z,48.00
2018-02-09T01:06:14.234Z,45.30
2018-02-09T01:07:14.245Z,43.20
2018-02-09T01:08:14.263Z,48.60
2018-02-09T01:09:14.269Z,42.60
2018-02-09T01:10:14.278Z,44.60
2018-02-09T01:11:14.288Z,44.50
2018-02-09T01:12:14.305Z,43.50
2018-02-09T01:13:14.314Z,46.00
2018-02-09T01:14:14.327Z,47.30
2018-02-09T01:15:14.339Z,42.30
2018-02-09T01:16:14.348Z,42.80
2018-02-09T01:17:14.358Z,43.10
2018-02-09T01:18:14.375Z,45.70
2018-02-09T01:19:14.394Z,44.10
2018-02-09T01:20:14.400Z,43.30
2018-02-09T01:21:14.407Z,41.60
2018-02-09T01:22:14.426Z,42.80
2018-02-09T01:23:14.435Z,42.00
2018-02-09T01:24:14.448Z,44.70
2018-02-09T01:25:14.453Z,40.10
2018-02-09T01:26:14.470Z,43.00
2018-02-09T01:27:14.478Z,42.00
2018-02-09T01:28:14.505Z,40.00
2018-02-09T01:29:14.509Z,41.70
2018-02-09T01:30:14.514Z,44.10
2018-02-09T01:31:14.527Z,43.20
2018-02-09T01:32:14.540Z,44.40
2018-02-09T01:33:14.555Z,41.70
2018-02-09T01:34:14.563Z,42.30
2018-02-09T01:35:14.574Z,43.70
2018-02-09T01:36:14.585Z,43.90
2018-02-09T01:37:14.599Z,46.40
2018-02-09T01:38:14.611Z,45.80
2018-02-09T01:39:14.622Z,44.20
2018-02-09T01:40:14.636Z,44.10
2018-02-09T01:41:14.647Z,43.30
2018-02-09T01:42:14.662Z,41.10
2018-02-09T01:43:14.672Z,42.90
2018-02-09T01:44:14.685Z,45.60
2018-02-09T01:45:14.693Z,42.10
2018-02-09T01:46:14.707Z,40.90
2018-02-09T01:47:14.730Z,42.20
2018-02-09T01:48:14.732Z,41.70
2018-02-09T01:49:14.751Z,44.00
2018-02-09T01:50:14.757Z,45.10
2018-02-09T01:51:14.774Z,44.00
2018-02-09T01:52:14.779Z,41.70
2018-02-09T01:53:14.795Z,40.90
2018-02-09T01:54:14.806Z,38.60
2018-02-09T01:55:14.817Z,41.10
2018-02-09T01:56:14.828Z,42.30
2018-02-09T01:57:14.839Z,43.40
2018-02-09T01:58:14.855Z,42.70
2018-02-09T01:59:14.866Z,41.70
2018-02-09T02:00:14.877Z,43.00
2018-02-09T02:01:14.888Z,40.30
2018-02-09T02:02:14.908Z,39.80
2018-02-09T02:03:14.914Z,41.40
2018-02-09T02:04:14.927Z,40.10
2018-02-09T02:05:14.941Z,41.50
2018-02-09T02:06:14.969Z,39.40
2018-02-09T02:07:14.968Z,42.30
2018-02-09T02:08:14.973Z,43.80
2018-02-09T02:09:14.987Z,39.00
2018-02-09T02:10:14.997Z,39.30
2018-02-09T02:11:15.010Z,36.30
2018-02-09T02:12:15.028Z,37.60
2018-02-09T02:13:15.033Z,39.60
2018-02-09T02:14:15.046Z,38.40
2018-02-09T02:15:15.064Z,38.40
2018-02-09T02:16:15.076Z,39.60
2018-02-09T02:17:15.085Z,39.50
2018-02-09T02:18:15.103Z,38.70
2018-02-09T02:19:15.106Z,41.50
2018-02-09T02:20:15.119Z,38.40
2018-02-09T02:21:15.132Z,37.50
2018-02-09T02:22:15.159Z,38.70
2018-02-09T02:23:15.153Z,39.00
2018-02-09T02:24:15.169Z,37.80
2018-02-09T02:25:15.185Z,39.00
2018-02-09T02:26:15.192Z,39.60
2018-02-09T02:27:15.201Z,39.20
2018-02-09T02:28:15.218Z,38.50
2018-02-09T02:29:15.228Z,41.10
2018-02-09T02:30:15.249Z,38.60
2018-02-09T02:31:15.252Z,41.10
2018-02-09T02:32:15.263Z,39.30
2018-02-09T02:33:15.274Z,38.10
2018-02-09T02:34:15.287Z,39.00
2018-02-09T02:35:15.303Z,40.50
2018-02-09T02:36:15.313Z,36.80
2018-02-09T02:37:15.322Z,40.10
2018-02-09T02:38:15.336Z,38.60
2018-02-09T02:39:15.346Z,37.20
2018-02-09T02:40:15.365Z,40.90
2018-02-09T02:41:15.381Z,36.80
2018-02-09T02:42:15.384Z,38.20
2018-02-09T02:43:15.393Z,41.70
2018-02-09T02:44:15.404Z,39.10
2018-02-09T02:45:15.420Z,40.60
2018-02-09T02:46:15.432Z,37.60
2018-02-09T02:47:15.443Z,39.60
2018-02-09T02:48:15.453Z,38.10
2018-02-09T02:49:15.465Z,41.80
2018-02-09T02:50:15.477Z,39.00
2018-02-09T02:51:15.491Z,41.30
2018-02-09T02:52:15.501Z,39.10
2018-02-09T02:53:15.520Z,37.90
2018-02-09T02:54:15.525Z,39.10
2018-02-09T02:55:15.537Z,41.60
2018-02-09T02:56:15.553Z,36.40
2018-02-09T02:57:15.561Z,38.20
2018-02-09T02:58:15.575Z,39.10
2018-02-09T02:59:15.583Z,39.10
2018-02-09T03:00:15.597Z,35.50
2018-02-09T03:01:15.607Z,38.00
2018-02-09T03:02:15.622Z,37.40
2018-02-09T03:03:15.643Z,37.80
2018-02-09T03:04:15.642Z,36.60
2018-02-09T03:05:15.676Z,38.10
2018-02-09T03:06:15.668Z,35.90
2018-02-09T03:07:15.679Z,35.40
2018-02-09T03:08:15.690Z,35.60
2018-02-09T03:09:15.716Z,35.60
2018-02-09T03:10:15.715Z,37.20
2018-02-09T03:11:15.729Z,37.40
2018-02-09T03:12:15.741Z,37.40
2018-02-09T03:13:15.751Z,39.80
2018-02-09T03:14:15.763Z,35.00
2018-02-09T03:15:15.776Z,36.70
2018-02-09T03:16:15.792Z,34.00
2018-02-09T03:17:15.800Z,36.90
2018-02-09T03:18:15.818Z,34.70
2018-02-09T03:19:15.824Z,36.60
2018-02-09T03:20:15.833Z,35.40
2018-02-09T03:21:15.849Z,34.70
2018-02-09T03:22:15.860Z,37.80
2018-02-09T03:23:15.868Z,34.90
2018-02-09T03:24:15.892Z,36.10
2018-02-09T03:25:15.895Z,35.50
2018-02-09T03:26:15.905Z,35.00
2018-02-09T03:27:15.923Z,37.00
2018-02-09T03:28:15.931Z,32.80
2018-02-09T03:29:15.946Z,33.50
2018-02-09T03:30:15.956Z,35.50
2018-02-09T03:31:15.982Z,35.20
2018-02-09T03:32:15.978Z,38.00
2018-02-09T03:33:15.995Z,36.90
2018-02-09T03:34:16.004Z,35.50
2018-02-09T03:35:16.018Z,36.40
2018-02-09T03:36:16.030Z,34.60
2018-02-09T03:37:16.043Z,34.00
2018-02-09T03:38:16.055Z,33.50
2018-02-09T03:39:16.073Z,36.40
2018-02-09T03:40:16.074Z,37.10
2018-02-09T03:41:16.086Z,34.50
2018-02-09T03:42:16.104Z,37.00
2018-02-09T03:43:16.118Z,34.70
2018-02-09T03:44:16.124Z,34.40
2018-02-09T03:45:16.137Z,35.10
2018-02-09T03:46:16.144Z,39.30
2018-02-09T03:47:16.163Z,36.60
2018-02-09T03:48:16.170Z,35.90
2018-02-09T03:49:16.180Z,36.10
2018-02-09T03:50:16.194Z,34.00
2018-02-09T03:51:16.207Z,38.30
2018-02-09T03:52:16.227Z,34.70
2018-02-09T03:53:16.231Z,35.00
2018-02-09T03:54:16.244Z,35.90
2018-02-09T03:55:16.256Z,33.60
2018-02-09T03:56:16.267Z,36.80
2018-02-09T03:57:16.285Z,37.40
2018-02-09T03:58:16.292Z,35.10
2018-02-09T03:59:16.305Z,34.70
2018-02-09T04:00:16.317Z,32.60
2018-02-09T04:01:16.328Z,32.70
2018-02-09T04:02:16.339Z,32.20
2018-02-09T04:03:16.351Z,33.70
2018-02-09T04:04:16.363Z,30.80
2018-02-09T04:05:16.379Z,31.70
2018-02-09T04:06:16.386Z,33.30
2018-02-09T04:07:16.430Z,34.10
2018-02-09T04:08:16.423Z,34.40
2018-02-09T04:09:16.423Z,32.60
2018-02-09T04:10:16.433Z,33.70
2018-02-09T04:11:16.448Z,32.20
2018-02-09T04:12:16.459Z,33.80
2018-02-09T04:13:16.467Z,33.70
2018-02-09T04:14:16.483Z,33.20
2018-02-09T04:15:16.498Z,30.50
2018-02-09T04:16:16.506Z,34.20
2018-02-09T04:17:16.521Z,34.60
2018-02-09T04:18:16.534Z,33.60
2018-02-09T04:19:16.544Z,33.90
2018-02-09T04:20:16.557Z,30.60
2018-02-09T04:21:16.566Z,30.90
2018-02-09T04:22:16.580Z,32.50
2018-02-09T04:23:16.592Z,32.90
2018-02-09T04:24:16.602Z,31.40
2018-02-09T04:25:16.613Z,31.70
2018-02-09T04:26:16.626Z,31.00
2018-02-09T04:27:16.640Z,33.80
2018-02-09T04:28:16.649Z,31.40
2018-02-09T04:29:16.679Z,32.10
2018-02-09T04:30:16.679Z,32.10
2018-02-09T04:31:16.719Z,32.20
2018-02-09T04:32:16.703Z,31.00
2018-02-09T04:33:16.708Z,29.10
2018-02-09T04:34:16.727Z,34.40
2018-02-09T04:35:16.736Z,32.10
2018-02-09T04:36:16.748Z,34.00
2018-02-09T04:37:16.756Z,30.00
2018-02-09T04:38:16.768Z,30.70
2018-02-09T04:39:16.785Z,30.60
2018-02-09T04:40:16.795Z,33.70
2018-02-09T04:41:16.813Z,29.00
2018-02-09T04:42:16.824Z,32.60
2018-02-09T04:43:16.831Z,29.60
2018-02-09T04:44:16.844Z,32.00
2018-02-09T04:45:16.854Z,28.60
2018-02-09T04:46:16.870Z,30.50
2018-02-09T04:47:16.877Z,31.20
2018-02-09T04:48:16.886Z,29.20
2018-02-09T04:49:16.900Z,32.10
2018-02-09T04:50:16.915Z,36.60
2018-02-09T04:51:16.933Z,30.70
2018-02-09T04:52:16.937Z,33.40
2018-02-09T04:53:16.952Z,32.70
2018-02-09T04:54:16.963Z,31.00
2018-02-09T04:55:16.975Z,32.10
2018-02-09T04:56:16.985Z,29.60
2018-02-09T04:57:17.000Z,29.80
2018-02-09T04:58:17.012Z,31.60
2018-02-09T04:59:17.022Z,35.10
2018-02-09T05:00:17.032Z,37.10
2018-02-09T05:01:17.044Z,36.90
2018-02-09T05:02:17.059Z,35.00
2018-02-09T05:03:17.068Z,32.40
2018-02-09T05:04:17.081Z,29.90
2018-02-09T05:05:17.093Z,30.00
2018-02-09T05:06:17.103Z,30.80
2018-02-09T05:07:17.118Z,29.70
2018-02-09T05:08:17.145Z,31.70
2018-02-09T05:09:17.141Z,30.50
2018-02-09T05:10:17.149Z,31.80
2018-02-09T05:11:17.162Z,33.70
2018-02-09T05:12:17.176Z,33.50
2018-02-09T05:13:17.190Z,32.60
2018-02-09T05:14:17.207Z,33.00
2018-02-09T05:15:17.212Z,31.80
2018-02-09T05:16:17.222Z,32.50
2018-02-09T05:17:17.289Z,32.90
2018-02-09T05:18:17.246Z,32.10
2018-02-09T05:19:17.262Z,33.50
2018-02-09T05:20:17.266Z,34.40
2018-02-09T05:21:17.280Z,32.40
2018-02-09T05:22:17.295Z,31.70
2018-02-09T05:23:17.303Z,37.10
2018-02-09T05:24:17.314Z,32.20
2018-02-09T05:25:17.324Z,33.40
2018-02-09T05:26:17.338Z,33.20
2018-02-09T05:27:17.349Z,32.70
2018-02-09T05:28:17.365Z,36.80
2018-02-09T05:29:17.388Z,35.80
2018-02-09T05:30:17.386Z,35.00
2018-02-09T05:31:17.398Z,33.90
2018-02-09T05:32:17.410Z,34.80
2018-02-09T05:33:17.423Z,34.30
2018-02-09T05:34:17.448Z,32.60
2018-02-09T05:35:17.442Z,31.80
2018-02-09T05:36:17.456Z,33.70
2018-02-09T05:37:17.465Z,34.20
2018-02-09T05:38:17.479Z,32.90
2018-02-09T05:39:17.489Z,35.00
2018-02-09T05:40:17.502Z,30.70
2018-02-09T05:41:17.578Z,34.90
2018-02-09T05:42:17.525Z,30.70
2018-02-09T05:43:17.536Z,34.80
2018-02-09T05:44:17.548Z,33.40
2018-02-09T05:45:17.561Z,31.40
2018-02-09T05:46:17.570Z,34.60
2018-02-09T05:47:17.584Z,32.10
2018-02-09T05:48:17.595Z,32.10
2018-02-09T05:49:17.612Z,34.30
2018-02-09T05:50:17.627Z,32.70
2018-02-09T05:51:17.657Z,34.70
2018-02-09T05:52:17.652Z,33.40
2018-02-09T05:53:17.657Z,30.70
2018-02-09T05:54:17.664Z,34.90
2018-02-09T05:55:18.966Z,33.50
2018-02-09T05:56:18.015Z,32.30
2018-02-09T05:57:17.705Z,32.50
2018-02-09T05:58:17.710Z,34.00
2018-02-09T05:59:17.721Z,33.50
2018-02-09T06:00:17.739Z,32.10
2018-02-09T06:01:17.752Z,33.70
2018-02-09T06:02:17.763Z,33.50
2018-02-09T06:03:17.772Z,31.60
2018-02-09T06:04:17.790Z,34.80
2018-02-09T06:05:17.793Z,34.90
2018-02-09T06:06:17.806Z,33.30
2018-02-09T06:07:17.826Z,32.70
2018-02-09T06:08:17.864Z,33.40
2018-02-09T06:09:17.840Z,32.20
2018-02-09T06:10:17.856Z,33.50
2018-02-09T06:11:17.863Z,36.30
2018-02-09T06:12:17.878Z,35.00
2018-02-09T06:13:17.892Z,36.30
2018-02-09T06:14:17.899Z,35.30
2018-02-09T06:15:17.912Z,36.90
2018-02-09T06:16:17.937Z,35.60
2018-02-09T06:17:17.933Z,39.30
2018-02-09T06:18:17.951Z,37.00
2018-02-09T06:19:17.956Z,36.80
2018-02-09T06:20:17.969Z,38.00
2018-02-09T06:21:17.992Z,34.90
2018-02-09T06:22:17.995Z,39.70
2018-02-09T06:23:18.008Z,37.20
2018-02-09T06:24:18.029Z,39.00
2018-02-09T06:25:18.034Z,36.70
2018-02-09T06:26:18.047Z,39.10
2018-02-09T06:27:18.054Z,38.40
2018-02-09T06:28:18.062Z,40.00
2018-02-09T06:29:18.091Z,39.40
2018-02-09T06:30:18.095Z,37.20
2018-02-09T06:31:18.102Z,38.90
2018-02-09T06:32:18.113Z,37.80
2018-02-09T06:33:18.120Z,39.20
2018-02-09T06:34:18.138Z,38.80
2018-02-09T06:35:18.162Z,39.40
2018-02-09T06:36:18.166Z,40.50
2018-02-09T06:37:18.175Z,41.20
2018-02-09T06:38:18.203Z,39.70
2018-02-09T06:39:18.216Z,37.50
2018-02-09T06:40:18.206Z,38.70
2018-02-09T06:41:18.209Z,38.60
2018-02-09T06:42:18.221Z,39.60
2018-02-09T06:43:18.233Z,40.60
2018-02-09T06:44:18.255Z,36.10
2018-02-09T06:45:18.256Z,37.90
2018-02-09T06:46:18.268Z,41.00
2018-02-09T06:47:18.279Z,36.40
2018-02-09T06:48:18.290Z,37.80
2018-02-09T06:49:18.306Z,38.80
2018-02-09T06:50:18.310Z,39.90
2018-02-09T06:51:18.330Z,38.90
2018-02-09T06:52:18.344Z,43.50
2018-02-09T06:53:18.349Z,43.70
2018-02-09T06:54:18.358Z,40.50
2018-02-09T06:55:18.367Z,44.80
2018-02-09T06:56:18.377Z,42.60
2018-02-09T06:57:18.388Z,44.20
2018-02-09T06:58:18.416Z,45.00
2018-02-09T06:59:18.413Z,40.80
2018-02-09T07:00:18.426Z,42.20
2018-02-09T07:01:18.436Z,42.30
2018-02-09T07:02:18.451Z,45.00
2018-02-09T07:03:18.458Z,43.70
2018-02-09T07:04:18.469Z,45.20
2018-02-09T07:05:18.477Z,46.80
2018-02-09T07:06:18.506Z,46.10
2018-02-09T07:07:18.512Z,46.10
2018-02-09T07:08:18.518Z,45.60
2018-02-09T07:09:18.523Z,47.00
2018-02-09T07:10:18.535Z,46.70
2018-02-09T07:11:18.551Z,44.90
2018-02-09T07:12:18.565Z,43.50
2018-02-09T07:13:18.572Z,43.70
2018-02-09T07:14:18.618Z,44.20
2018-02-09T07:15:18.600Z,46.40
2018-02-09T07:16:18.631Z,46.00
2018-02-09T07:17:18.621Z,46.90
2018-02-09T07:18:18.643Z,47.00
2018-02-09T07:19:18.642Z,47.90
2018-02-09T07:20:18.652Z,46.60
2018-02-09T07:21:18.659Z,48.30
2018-02-09T07:22:18.673Z,47.40
2018-02-09T07:23:18.689Z,45.50
2018-02-09T07:24:18.693Z,45.10
2018-02-09T07:25:18.705Z,44.80
2018-02-09T07:26:18.733Z,46.80
2018-02-09T07:27:18.733Z,44.50
2018-02-09T07:28:18.740Z,46.60
2018-02-09T07:29:18.751Z,44.40
2018-02-09T07:30:18.760Z,47.90
2018-02-09T07:31:18.771Z,45.50
2018-02-09T07:32:18.785Z,45.70
2018-02-09T07:33:18.810Z,44.50
2018-02-09T07:34:18.807Z,46.20
2018-02-09T07:35:18.822Z,44.60
2018-02-09T07:36:18.835Z,46.50
2018-02-09T07:37:18.840Z,48.40
2018-02-09T07:38:18.857Z,45.10
2018-02-09T07:39:18.867Z,45.10
2018-02-09T07:40:18.884Z,44.90
2018-02-09T07:41:18.893Z,46.60
2018-02-09T07:42:18.903Z,45.80
2018-02-09T07:43:18.917Z,45.10
2018-02-09T07:44:18.922Z,43.90
2018-02-09T07:45:18.933Z,45.10
2018-02-09T07:46:18.951Z,44.40
2018-02-09T07:47:18.971Z,45.90
2018-02-09T07:48:18.976Z,43.70
2018-02-09T07:49:18.989Z,45.90
2018-02-09T07:50:18.988Z,47.30
2018-02-09T07:51:19.001Z,46.90
2018-02-09T07:52:19.016Z,43.90
2018-02-09T07:53:19.032Z,46.60
2018-02-09T07:54:19.039Z,43.80
2018-02-09T07:55:19.053Z,42.90
2018-02-09T07:56:19.065Z,45.60
2018-02-09T07:57:19.074Z,45.00
2018-02-09T07:58:19.092Z,43.40
2018-02-09T07:59:19.108Z,44.50
2018-02-09T08:00:19.130Z,46.80
2018-02-09T08:01:19.125Z,45.30
2018-02-09T08:02:19.131Z,44.60
2018-02-09T08:03:19.146Z,46.80
2018-02-09T08:04:19.163Z,47.30
2018-02-09T08:05:19.166Z,45.90
2018-02-09T08:06:19.180Z,45.50
2018-02-09T08:07:19.191Z,45.60
2018-02-09T08:08:19.209Z,45.40
2018-02-09T08:09:19.218Z,46.40
2018-02-09T08:10:19.236Z,46.30
2018-02-09T08:11:19.239Z,44.80
2018-02-09T08:12:19.253Z,43.60
2018-02-09T08:13:19.262Z,45.20
2018-02-09T08:14:19.280Z,44.70
2018-02-09T08:15:19.286Z,42.20
2018-02-09T08:16:19.301Z,45.30
2018-02-09T08:17:19.315Z,41.90
2018-02-09T08:18:19.326Z,43.70
2018-02-09T08:19:19.346Z,40.20
2018-02-09T08:20:19.351Z,45.20
2018-02-09T08:21:19.374Z,43.20
2018-02-09T08:22:19.382Z,44.10
2018-02-09T08:23:19.385Z,45.60
2018-02-09T08:24:19.448Z,42.80
2018-02-09T08:25:19.414Z,41.10
2018-02-09T08:26:19.429Z,43.20
2018-02-09T08:27:19.444Z,44.10
2018-02-09T08:28:19.452Z,42.70
2018-02-09T08:29:19.460Z,44.10
2018-02-09T08:30:19.481Z,41.40
2018-02-09T08:31:19.502Z,44.80
2018-02-09T08:32:19.498Z,45.10
2018-02-09T08:33:19.508Z,45.60
2018-02-09T08:34:19.531Z,44.90
2018-02-09T08:35:19.538Z,43.90
2018-02-09T08:36:19.549Z,43.10
2018-02-09T08:37:19.562Z,45.00
2018-02-09T08:38:19.587Z,41.60
2018-02-09T08:39:19.595Z,39.80
2018-02-09T08:40:19.610Z,41.40
2018-02-09T08:41:19.620Z,39.70
2018-02-09T08:42:19.639Z,43.60
2018-02-09T08:43:19.639Z,41.50
2018-02-09T08:44:19.661Z,42.30
2018-02-09T08:45:19.678Z,40.40
2018-02-09T08:46:19.679Z,40.70
2018-02-09T08:47:19.690Z,39.40
2018-02-09T08:48:19.709Z,40.30
2018-02-09T08:49:19.716Z,43.00
2018-02-09T08:50:19.730Z,40.80
2018-02-09T08:51:19.740Z,40.50
2018-02-09T08:52:19.768Z,41.00
2018-02-09T08:53:19.769Z,39.20
2018-02-09T08:54:19.785Z,40.80
2018-02-09T08:55:19.797Z,40.60
2018-02-09T08:56:19.812Z,41.20
2018-02-09T08:57:19.824Z,41.00
2018-02-09T08:58:19.844Z,40.10
2018-02-09T08:59:19.859Z,43.70
2018-02-09T09:00:19.865Z,40.10
2018-02-09T09:01:19.878Z,42.60
2018-02-09T09:02:19.894Z,42.50
2018-02-09T09:03:19.907Z,40.40
2018-02-09T09:04:19.917Z,42.50
2018-02-09T09:05:19.931Z,41.70
2018-02-09T09:06:19.944Z,41.20
2018-02-09T09:07:19.959Z,42.50
2018-02-09T09:08:19.973Z,43.20
2018-02-09T09:09:19.992Z,44.10
2018-02-09T09:10:20.003Z,43.90
2018-02-09T09:11:20.022Z,44.10
2018-02-09T09:12:20.045Z,44.20
2018-02-09T09:13:20.052Z,43.90
2018-02-09T09:14:20.058Z,45.90
2018-02-09T09:15:20.066Z,45.50
2018-02-09T09:16:20.094Z,45.40
2018-02-09T09:17:20.101Z,43.20
2018-02-09T09:18:20.116Z,45.10
2018-02-09T09:19:20.144Z,46.00
2018-02-09T09:20:20.143Z,46.30
2018-02-09T09:21:20.152Z,45.70
2018-02-09T09:22:20.166Z,45.10
2018-02-09T09:23:20.180Z,45.00
2018-02-09T09:24:20.203Z,45.70
2018-02-09T09:25:20.205Z,41.10
2018-02-09T09:26:20.219Z,44.30
2018-02-09T09:27:20.234Z,44.00
2018-02-09T09:28:20.280Z,48.30
2018-02-09T09:29:20.261Z,47.20
2018-02-09T09:30:20.279Z,47.70
2018-02-09T09:31:20.297Z,51.40
2018-02-09T09:32:20.320Z,45.90
2018-02-09T09:33:20.320Z,48.10
2018-02-09T09:34:20.402Z,46.00
2018-02-09T09:35:20.346Z,46.70
2018-02-09T09:36:20.360Z,50.20
2018-02-09T09:37:20.373Z,47.30
2018-02-09T09:38:20.385Z,47.30
2018-02-09T09:39:20.403Z,47.20
2018-02-09T09:40:20.416Z,46.80
2018-02-09T09:41:20.427Z,48.00
2018-02-09T09:42:20.450Z,48.90
2018-02-09T09:43:20.464Z,47.10
2018-02-09T09:44:20.469Z,47.20
2018-02-09T09:45:20.483Z,48.30
2018-02-09T09:46:20.503Z,47.50
2018-02-09T09:47:20.523Z,48.00
2018-02-09T09:48:20.529Z,47.00
2018-02-09T09:49:20.542Z,47.00
2018-02-09T09:50:20.557Z,51.10
2018-02-09T09:51:20.569Z,46.30
2018-02-09T09:52:20.594Z,50.20
2018-02-09T09:53:20.599Z,48.50
2018-02-09T09:54:20.614Z,50.50
2018-02-09T09:55:20.639Z,48.10
2018-02-09T09:56:20.645Z,51.60
2018-02-09T09:57:20.666Z,50.00
2018-02-09T09:58:20.670Z,49.40
2018-02-09T09:59:20.685Z,52.60
2018-02-09T10:00:20.700Z,49.10
2018-02-09T10:01:20.711Z,49.30
2018-02-09T10:02:20.729Z,48.40
2018-02-09T10:03:20.740Z,49.10
2018-02-09T10:04:20.755Z,51.30
2018-02-09T10:05:20.769Z,50.10
2018-02-09T10:06:20.787Z,49.40
2018-02-09T10:07:20.800Z,49.80
2018-02-09T10:08:20.810Z,49.30
2018-02-09T10:09:20.837Z,54.10
2018-02-09T10:10:20.841Z,52.20
2018-02-09T10:11:20.852Z,52.50
2018-02-09T10:12:20.876Z,53.30
2018-02-09T10:13:20.884Z,52.00
2018-02-09T10:14:20.899Z,47.40
2018-02-09T10:15:20.925Z,53.00
2018-02-09T10:16:20.927Z,48.70
2018-02-09T10:17:20.940Z,48.20
2018-02-09T10:18:20.955Z,52.20
2018-02-09T10:19:20.977Z,51.10
2018-02-09T10:20:20.990Z,54.20
2018-02-09T10:21:20.999Z,54.50
2018-02-09T10:22:21.020Z,54.00
2018-02-09T10:23:21.032Z,50.10
2018-02-09T10:24:21.044Z,55.40
2018-02-09T10:25:21.061Z,53.20
2018-02-09T10:26:21.078Z,52.90
2018-02-09T10:27:21.084Z,51.30
2018-02-09T10:28:21.094Z,55.80
2018-02-09T10:29:21.117Z,55.00
2018-02-09T10:30:21.129Z,52.90
2018-02-09T10:31:21.143Z,52.80
2018-02-09T10:32:21.155Z,50.90
2018-02-09T10:33:21.178Z,50.80
2018-02-09T10:34:21.189Z,54.60
2018-02-09T10:35:21.203Z,53.20
2018-02-09T10:36:21.214Z,52.60
2018-02-09T10:37:21.232Z,54.50
2018-02-09T10:38:21.246Z,51.60
2018-02-09T10:39:21.263Z,53.80
2018-02-09T10:40:21.269Z,55.80
2018-02-09T10:41:21.288Z,55.10
2018-02-09T10:42:21.302Z,56.10
2018-02-09T10:43:21.311Z,51.40
2018-02-09T10:44:21.326Z,54.30
2018-02-09T10:45:21.340Z,58.10
2018-02-09T10:46:21.352Z,55.20
2018-02-09T10:47:21.368Z,57.10
2018-02-09T10:48:21.380Z,57.30
2018-02-09T10:49:21.394Z,55.30
2018-02-09T10:50:21.416Z,55.20
2018-02-09T10:51:21.432Z,52.40
2018-02-09T10:52:22.015Z,57.40
2018-02-09T10:53:21.453Z,57.10
2018-02-09T10:54:21.467Z,56.40
2018-02-09T10:55:21.488Z,57.20
2018-02-09T10:56:21.496Z,59.60
2018-02-09T10:57:21.520Z,56.90
2018-02-09T10:58:21.528Z,57.70
2018-02-09T10:59:21.542Z,59.70
2018-02-09T11:00:21.562Z,59.60
2018-02-09T11:01:21.570Z,57.80
2018-02-09T11:02:21.594Z,57.80
2018-02-09T11:03:21.599Z,60.70
2018-02-09T11:04:21.615Z,61.30
2018-02-09T11:05:21.644Z,62.50
2018-02-09T11:06:21.649Z,60.80
2018-02-09T11:07:21.660Z,63.10
2018-02-09T11:08:21.668Z,65.90
2018-02-09T11:09:21.685Z,59.60
2018-02-09T11:10:21.705Z,60.60
2018-02-09T11:11:21.712Z,62.00
2018-02-09T11:12:21.723Z,60.30
2018-02-09T11:13:21.749Z,60.00
2018-02-09T11:14:21.758Z,60.80
2018-02-09T11:15:21.769Z,62.10
2018-02-09T11:16:21.784Z,62.60
2018-02-09T11:17:21.831Z,61.70
2018-02-09T11:18:21.821Z,63.10
2018-02-09T11:19:21.827Z,62.30
2018-02-09T11:20:21.849Z,60.70
2018-02-09T11:21:21.862Z,62.20
2018-02-09T11:22:21.869Z,64.00
2018-02-09T11:23:21.885Z,59.10
2018-02-09T11:24:21.901Z,63.90
2018-02-09T11:25:21.917Z,62.70
2018-02-09T11:26:21.927Z,65.10
2018-02-09T11:27:21.941Z,60.40
2018-02-09T11:28:21.959Z,62.00
2018-02-09T11:29:21.971Z,64.00
2018-02-09T11:30:21.993Z,62.00
2018-02-09T11:31:21.999Z,61.10
2018-02-09T11:32:22.014Z,59.80
2018-02-09T11:33:22.035Z,60.30
2018-02-09T11:34:22.043Z,61.90
2018-02-09T11:35:22.057Z,60.90
2018-02-09T11:36:22.074Z,59.90
2018-02-09T11:37:22.089Z,58.60
2018-02-09T11:38:22.105Z,63.10
2018-02-09T11:39:22.116Z,61.90
2018-02-09T11:40:22.137Z,65.70
2018-02-09T11:41:22.152Z,59.80
2018-02-09T11:42:22.161Z,59.30
2018-02-09T11:43:22.176Z,61.30
2018-02-09T11:44:22.189Z,58.70
2018-02-09T11:45:22.204Z,61.60
2018-02-09T11:46:22.219Z,60.80
2018-02-09T11:47:22.234Z,63.00
2018-02-09T11:48:22.255Z,59.50
2018-02-09T11:49:22.262Z,58.80
2018-02-09T11:50:22.291Z,61.70
2018-02-09T11:51:22.298Z,58.20
2018-02-09T11:52:22.305Z,58.30
2018-02-09T11:53:22.320Z,60.40
2018-02-09T11:54:22.333Z,60.20
2018-02-09T11:55:22.349Z,60.60
2018-02-09T11:56:22.367Z,62.70
2018-02-09T11:57:22.387Z,63.90
2018-02-09T11:58:22.401Z,59.20
2018-02-09T11:59:22.405Z,61.40
2018-02-09T12:00:22.430Z,63.20
2018-02-09T12:01:22.431Z,59.20
2018-02-09T12:02:22.455Z,60.00
2018-02-09T12:03:22.466Z,60.20
2018-02-09T12:04:22.478Z,58.20
2018-02-09T12:05:22.492Z,61.50
2018-02-09T12:06:22.510Z,62.20
2018-02-09T12:07:22.532Z,58.10
2018-02-09T12:08:22.545Z,60.50
2018-02-09T12:09:22.549Z,62.70
2018-02-09T12:10:22.575Z,60.40
2018-02-09T12:11:22.576Z,61.60
2018-02-09T12:12:22.593Z,59.30
2018-02-09T12:13:22.609Z,57.10
2018-02-09T12:14:22.622Z,58.70
2018-02-09T12:15:22.636Z,61.70
2018-02-09T12:16:22.656Z,55.90
2018-02-09T12:17:22.666Z,58.90
2018-02-09T12:18:22.691Z,59.00
2018-02-09T12:19:22.696Z,61.40
2018-02-09T12:20:22.744Z,57.80
2018-02-09T12:21:22.724Z,60.30
2018-02-09T12:22:22.739Z,55.60
2018-02-09T12:23:22.765Z,57.70
2018-02-09T12:24:22.771Z,60.20
2018-02-09T12:25:22.781Z,59.40
2018-02-09T12:26:22.797Z,55.50
2018-02-09T12:27:22.810Z,54.50
2018-02-09T12:28:22.842Z,57.50
2018-02-09T12:29:22.842Z,56.10
2018-02-09T12:30:22.859Z,59.00
2018-02-09T12:31:22.873Z,54.70
2018-02-09T12:32:22.886Z,59.60
2018-02-09T12:33:22.900Z,53.80
2018-02-09T12:34:22.916Z,52.70
2018-02-09T12:35:22.929Z,56.40
2018-02-09T12:36:22.949Z,53.30
2018-02-09T12:37:22.960Z,56.50
2018-02-09T12:38:22.971Z,57.30
2018-02-09T12:39:22.993Z,55.70
2018-02-09T12:40:23.008Z,54.40
2018-02-09T12:41:23.017Z,55.60
2018-02-09T12:42:23.041Z,57.40
2018-02-09T12:43:23.053Z,52.80
2018-02-09T12:44:23.064Z,55.20
2018-02-09T12:45:23.080Z,53.70
2018-02-09T12:46:23.092Z,49.90
2018-02-09T12:47:23.111Z,51.90
2018-02-09T12:48:23.128Z,53.90
2018-02-09T12:49:23.139Z,53.80
2018-02-09T12:50:23.166Z,53.10
2018-02-09T12:51:23.166Z,57.60
2018-02-09T12:52:23.186Z,52.40